Upstream stations:
Downstream station:
SHEF ID: IOLK1 NEOSHO RIVER NEAR IOLA
STATION TYPE:
Regulating: Stage = 15.00, Flow = 18228
PRECIP STAGE RIV-FLOW BAT-LOAD
in ft cfs volt
Ccp-Rev Ccp-Rev Ccp-Rev Ccp-Rev
(US/Central)
03/28 00:00 0.00 8.48 2847 12.59
03/28 01:00 0.00 8.48 2847 12.57
03/28 02:00 0.00 8.48 2847 12.55
03/28 03:00 0.00 8.47 2821 12.53
03/28 04:00 0.00 8.47 2821 12.49
03/28 05:00 0.00 8.47 2821 12.48
03/28 06:00 0.00 8.47 2821 12.47
03/28 07:00 0.00 8.47 2821 12.46
03/28 08:00 0.00 8.46 2795 12.46
03/28 09:00 0.00 8.47 2821 13.39
03/28 10:00 0.00 8.47 2821 13.85
03/28 11:00 0.00 8.47 2821 13.71
03/28 12:00 0.00 8.47 2821 13.45
03/28 13:00 0.00 8.48 2847 13.34
03/28 14:00 0.00 8.47 2821 13.26
03/28 15:00 0.00 8.47 2821 13.17
03/28 16:00 0.00 8.47 2821 13.10
03/28 17:00 0.00 8.47 2821 13.07
03/28 18:00 0.00 8.46 2795 13.05
03/28 19:00 0.00 8.43 2716 13.03
03/28 20:00 0.00 8.38 2588 12.80
03/28 21:00 0.00 8.34 2488 12.74
03/28 22:00 0.00 8.29 2365 12.70
03/28 23:00 0.00 8.27 2317 12.67